sensor_id;sensor_type;location;lat;lon;timestamp;P1;durP1;ratioP1;P2;durP2;ratioP2
22549;SDS011;11441;57.164;-2.120;2023-07-24T00:00:34;8.63;;;1.63;;
22549;SDS011;11441;57.164;-2.120;2023-07-24T00:03:02;5.60;;;1.10;;
22549;SDS011;11441;57.164;-2.120;2023-07-24T00:05:29;4.55;;;1.63;;
22549;SDS011;11441;57.164;-2.120;2023-07-24T00:07:56;5.75;;;1.58;;
22549;SDS011;11441;57.164;-2.120;2023-07-24T00:10:23;6.82;;;1.45;;
22549;SDS011;11441;57.164;-2.120;2023-07-24T00:12:50;5.05;;;1.42;;
22549;SDS011;11441;57.164;-2.120;2023-07-24T00:15:17;7.47;;;1.50;;
22549;SDS011;11441;57.164;-2.120;2023-07-24T00:17:44;7.13;;;1.75;;
22549;SDS011;11441;57.164;-2.120;2023-07-24T00:20:11;6.00;;;1.40;;
22549;SDS011;11441;57.164;-2.120;2023-07-24T00:22:38;2.80;;;0.95;;
22549;SDS011;11441;57.164;-2.120;2023-07-24T00:25:05;4.88;;;1.48;;
22549;SDS011;11441;57.164;-2.120;2023-07-24T00:27:32;4.82;;;1.10;;
22549;SDS011;11441;57.164;-2.120;2023-07-24T00:29:59;7.20;;;1.83;;
22549;SDS011;11441;57.164;-2.120;2023-07-24T00:32:26;3.78;;;0.73;;
22549;SDS011;11441;57.164;-2.120;2023-07-24T00:34:54;5.38;;;1.75;;
22549;SDS011;11441;57.164;-2.120;2023-07-24T00:37:22;6.50;;;1.90;;
22549;SDS011;11441;57.164;-2.120;2023-07-24T00:39:50;5.05;;;1.35;;
22549;SDS011;11441;57.164;-2.120;2023-07-24T00:42:17;5.00;;;1.25;;
22549;SDS011;11441;57.164;-2.120;2023-07-24T00:44:47;4.13;;;1.00;;
22549;SDS011;11441;57.164;-2.120;2023-07-24T00:47:16;6.40;;;1.48;;
22549;SDS011;11441;57.164;-2.120;2023-07-24T00:49:45;5.07;;;1.63;;
22549;SDS011;11441;57.164;-2.120;2023-07-24T00:52:13;5.22;;;1.20;;
22549;SDS011;11441;57.164;-2.120;2023-07-24T00:54:40;4.80;;;1.15;;
22549;SDS011;11441;57.164;-2.120;2023-07-24T00:57:08;3.30;;;1.10;;
22549;SDS011;11441;57.164;-2.120;2023-07-24T00:59:35;4.53;;;1.08;;
22549;SDS011;11441;57.164;-2.120;2023-07-24T01:02:02;6.93;;;1.02;;
22549;SDS011;11441;57.164;-2.120;2023-07-24T01:04:29;6.13;;;1.65;;
22549;SDS011;11441;57.164;-2.120;2023-07-24T01:06:56;6.55;;;0.82;;
22549;SDS011;11441;57.164;-2.120;2023-07-24T01:09:23;7.47;;;1.35;;
22549;SDS011;11441;57.164;-2.120;2023-07-24T01:11:52;5.15;;;1.17;;
22549;SDS011;11441;57.164;-2.120;2023-07-24T01:17:25;3.20;;;1.30;;
22549;SDS011;11441;57.164;-2.120;2023-07-24T01:19:55;7.15;;;1.42;;
22549;SDS011;11441;57.164;-2.120;2023-07-24T01:27:43;4.03;;;1.00;;
22549;SDS011;11441;57.164;-2.120;2023-07-24T01:30:12;7.45;;;1.35;;
22549;SDS011;11441;57.164;-2.120;2023-07-24T01:32:41;3.65;;;0.85;;
22549;SDS011;11441;57.164;-2.120;2023-07-24T01:35:08;3.00;;;0.80;;
22549;SDS011;11441;57.164;-2.120;2023-07-24T01:37:35;5.03;;;1.23;;
22549;SDS011;11441;57.164;-2.120;2023-07-24T01:40:06;3.90;;;1.13;;
22549;SDS011;11441;57.164;-2.120;2023-07-24T01:42:34;4.45;;;1.30;;
22549;SDS011;11441;57.164;-2.120;2023-07-24T01:47:47;3.67;;;1.13;;
22549;SDS011;11441;57.164;-2.120;2023-07-24T01:50:14;3.08;;;1.30;;
22549;SDS011;11441;57.164;-2.120;2023-07-24T01:52:41;6.13;;;1.10;;
22549;SDS011;11441;57.164;-2.120;2023-07-24T01:55:08;2.72;;;0.80;;
22549;SDS011;11441;57.164;-2.120;2023-07-24T01:57:35;4.68;;;1.17;;
22549;SDS011;11441;57.164;-2.120;2023-07-24T02:00:02;2.67;;;0.82;;
22549;SDS011;11441;57.164;-2.120;2023-07-24T02:02:56;4.38;;;0.88;;
22549;SDS011;11441;57.164;-2.120;2023-07-24T02:05:41;4.05;;;1.02;;
22549;SDS011;11441;57.164;-2.120;2023-07-24T02:08:08;3.03;;;0.88;;
22549;SDS011;11441;57.164;-2.120;2023-07-24T02:10:36;2.53;;;0.85;;
22549;SDS011;11441;57.164;-2.120;2023-07-24T02:13:04;4.53;;;1.17;;
22549;SDS011;11441;57.164;-2.120;2023-07-24T02:15:34;3.45;;;1.40;;
22549;SDS011;11441;57.164;-2.120;2023-07-24T02:18:00;1.70;;;0.60;;
22549;SDS011;11441;57.164;-2.120;2023-07-24T02:20:28;3.85;;;1.30;;
22549;SDS011;11441;57.164;-2.120;2023-07-24T02:22:55;6.15;;;0.90;;
22549;SDS011;11441;57.164;-2.120;2023-07-24T02:25:22;6.75;;;1.83;;
22549;SDS011;11441;57.164;-2.120;2023-07-24T02:27:49;3.47;;;1.67;;
22549;SDS011;11441;57.164;-2.120;2023-07-24T02:30:16;3.13;;;0.98;;
22549;SDS011;11441;57.164;-2.120;2023-07-24T02:32:43;6.82;;;1.00;;
22549;SDS011;11441;57.164;-2.120;2023-07-24T02:35:09;5.00;;;1.02;;
22549;SDS011;11441;57.164;-2.120;2023-07-24T02:37:37;2.60;;;0.88;;
22549;SDS011;11441;57.164;-2.120;2023-07-24T02:40:04;4.60;;;1.60;;
22549;SDS011;11441;57.164;-2.120;2023-07-24T02:42:49;2.55;;;0.90;;
22549;SDS011;11441;57.164;-2.120;2023-07-24T02:45:16;5.63;;;1.30;;
22549;SDS011;11441;57.164;-2.120;2023-07-24T02:47:43;4.20;;;1.30;;
22549;SDS011;11441;57.164;-2.120;2023-07-24T02:50:29;5.80;;;1.00;;
22549;SDS011;11441;57.164;-2.120;2023-07-24T02:52:55;0.68;;;0.63;;
22549;SDS011;11441;57.164;-2.120;2023-07-24T02:55:22;4.45;;;1.15;;
22549;SDS011;11441;57.164;-2.120;2023-07-24T02:57:49;3.83;;;1.15;;
22549;SDS011;11441;57.164;-2.120;2023-07-24T03:00:16;4.13;;;0.82;;
22549;SDS011;11441;57.164;-2.120;2023-07-24T03:03:00;4.32;;;0.63;;
22549;SDS011;11441;57.164;-2.120;2023-07-24T03:05:27;1.80;;;0.65;;
22549;SDS011;11441;57.164;-2.120;2023-07-24T03:08:12;2.72;;;0.90;;
22549;SDS011;11441;57.164;-2.120;2023-07-24T03:10:42;7.53;;;1.15;;
22549;SDS011;11441;57.164;-2.120;2023-07-24T03:13:09;2.17;;;0.80;;
22549;SDS011;11441;57.164;-2.120;2023-07-24T03:15:36;4.63;;;1.13;;
22549;SDS011;11441;57.164;-2.120;2023-07-24T03:18:03;2.58;;;1.00;;
22549;SDS011;11441;57.164;-2.120;2023-07-24T03:20:30;3.72;;;0.90;;
22549;SDS011;11441;57.164;-2.120;2023-07-24T03:22:57;4.47;;;1.00;;
22549;SDS011;11441;57.164;-2.120;2023-07-24T03:25:23;2.00;;;0.90;;
22549;SDS011;11441;57.164;-2.120;2023-07-24T03:27:51;3.50;;;0.75;;
22549;SDS011;11441;57.164;-2.120;2023-07-24T03:30:19;2.58;;;0.75;;
22549;SDS011;11441;57.164;-2.120;2023-07-24T03:32:46;3.78;;;0.73;;
22549;SDS011;11441;57.164;-2.120;2023-07-24T03:35:13;3.72;;;0.82;;
22549;SDS011;11441;57.164;-2.120;2023-07-24T03:37:40;1.95;;;0.77;;
22549;SDS011;11441;57.164;-2.120;2023-07-24T03:40:07;2.17;;;0.60;;
22549;SDS011;11441;57.164;-2.120;2023-07-24T03:42:34;3.03;;;0.80;;
22549;SDS011;11441;57.164;-2.120;2023-07-24T03:45:01;4.57;;;1.08;;
22549;SDS011;11441;57.164;-2.120;2023-07-24T03:47:28;4.00;;;0.75;;
22549;SDS011;11441;57.164;-2.120;2023-07-24T03:49:55;3.45;;;0.88;;
22549;SDS011;11441;57.164;-2.120;2023-07-24T03:52:22;2.17;;;1.30;;
22549;SDS011;11441;57.164;-2.120;2023-07-24T03:54:50;1.50;;;0.75;;
22549;SDS011;11441;57.164;-2.120;2023-07-24T03:57:18;1.58;;;0.50;;
22549;SDS011;11441;57.164;-2.120;2023-07-24T03:59:45;3.45;;;0.95;;
22549;SDS011;11441;57.164;-2.120;2023-07-24T04:02:12;0.60;;;0.60;;
22549;SDS011;11441;57.164;-2.120;2023-07-24T04:04:38;2.30;;;0.50;;
22549;SDS011;11441;57.164;-2.120;2023-07-24T04:07:05;3.55;;;0.90;;
22549;SDS011;11441;57.164;-2.120;2023-07-24T04:09:32;1.27;;;0.70;;
22549;SDS011;11441;57.164;-2.120;2023-07-24T04:11:59;1.90;;;0.63;;
22549;SDS011;11441;57.164;-2.120;2023-07-24T04:14:27;0.98;;;0.80;;
22549;SDS011;11441;57.164;-2.120;2023-07-24T04:16:53;3.30;;;0.77;;
22549;SDS011;11441;57.164;-2.120;2023-07-24T04:19:22;1.58;;;0.70;;
22549;SDS011;11441;57.164;-2.120;2023-07-24T04:21:49;2.88;;;0.88;;
22549;SDS011;11441;57.164;-2.120;2023-07-24T04:24:16;1.23;;;0.47;;
22549;SDS011;11441;57.164;-2.120;2023-07-24T04:26:42;6.93;;;1.15;;
22549;SDS011;11441;57.164;-2.120;2023-07-24T04:29:09;6.47;;;0.88;;
22549;SDS011;11441;57.164;-2.120;2023-07-24T04:31:36;5.90;;;1.13;;
22549;SDS011;11441;57.164;-2.120;2023-07-24T04:34:03;1.92;;;0.57;;
22549;SDS011;11441;57.164;-2.120;2023-07-24T04:36:30;2.95;;;0.77;;
22549;SDS011;11441;57.164;-2.120;2023-07-24T04:38:57;1.83;;;0.50;;
22549;SDS011;11441;57.164;-2.120;2023-07-24T04:41:24;1.95;;;0.68;;
22549;SDS011;11441;57.164;-2.120;2023-07-24T04:43:51;2.22;;;0.60;;
22549;SDS011;11441;57.164;-2.120;2023-07-24T04:46:18;1.10;;;0.63;;
22549;SDS011;11441;57.164;-2.120;2023-07-24T04:48:45;0.52;;;0.50;;
22549;SDS011;11441;57.164;-2.120;2023-07-24T04:51:12;2.28;;;0.50;;
22549;SDS011;11441;57.164;-2.120;2023-07-24T04:53:39;2.88;;;0.77;;
22549;SDS011;11441;57.164;-2.120;2023-07-24T04:56:06;0.80;;;0.40;;
22549;SDS011;11441;57.164;-2.120;2023-07-24T04:58:33;0.52;;;0.40;;
22549;SDS011;11441;57.164;-2.120;2023-07-24T05:01:03;1.95;;;0.52;;
22549;SDS011;11441;57.164;-2.120;2023-07-24T05:03:49;2.70;;;0.55;;
22549;SDS011;11441;57.164;-2.120;2023-07-24T05:06:16;5.68;;;0.65;;
22549;SDS011;11441;57.164;-2.120;2023-07-24T05:08:42;1.48;;;0.40;;
22549;SDS011;11441;57.164;-2.120;2023-07-24T05:11:09;3.30;;;0.60;;
22549;SDS011;11441;57.164;-2.120;2023-07-24T05:13:36;0.80;;;0.43;;
22549;SDS011;11441;57.164;-2.120;2023-07-24T05:16:03;1.83;;;0.45;;
22549;SDS011;11441;57.164;-2.120;2023-07-24T05:18:30;3.33;;;0.57;;
22549;SDS011;11441;57.164;-2.120;2023-07-24T05:20:57;2.50;;;0.63;;
22549;SDS011;11441;57.164;-2.120;2023-07-24T05:23:24;1.35;;;0.60;;
22549;SDS011;11441;57.164;-2.120;2023-07-24T05:26:00;2.38;;;0.80;;
22549;SDS011;11441;57.164;-2.120;2023-07-24T05:28:29;2.80;;;0.68;;
22549;SDS011;11441;57.164;-2.120;2023-07-24T05:31:03;1.25;;;0.63;;
22549;SDS011;11441;57.164;-2.120;2023-07-24T05:33:31;3.30;;;0.50;;
22549;SDS011;11441;57.164;-2.120;2023-07-24T05:36:02;2.42;;;0.50;;
22549;SDS011;11441;57.164;-2.120;2023-07-24T05:38:30;1.02;;;0.55;;
22549;SDS011;11441;57.164;-2.120;2023-07-24T05:41:00;3.65;;;0.50;;
22549;SDS011;11441;57.164;-2.120;2023-07-24T05:43:29;2.83;;;0.50;;
22549;SDS011;11441;57.164;-2.120;2023-07-24T05:45:57;4.07;;;0.55;;
22549;SDS011;11441;57.164;-2.120;2023-07-24T05:48:24;6.10;;;0.82;;
22549;SDS011;11441;57.164;-2.120;2023-07-24T05:50:51;1.95;;;0.40;;
22549;SDS011;11441;57.164;-2.120;2023-07-24T05:53:18;2.13;;;0.57;;
22549;SDS011;11441;57.164;-2.120;2023-07-24T05:55:45;3.17;;;0.50;;
22549;SDS011;11441;57.164;-2.120;2023-07-24T05:58:12;2.10;;;0.45;;
22549;SDS011;11441;57.164;-2.120;2023-07-24T06:00:39;2.20;;;0.55;;
22549;SDS011;11441;57.164;-2.120;2023-07-24T06:03:06;2.25;;;0.47;;
22549;SDS011;11441;57.164;-2.120;2023-07-24T06:05:34;3.72;;;0.70;;
22549;SDS011;11441;57.164;-2.120;2023-07-24T06:08:01;1.33;;;0.70;;
22549;SDS011;11441;57.164;-2.120;2023-07-24T06:10:28;2.72;;;0.50;;
22549;SDS011;11441;57.164;-2.120;2023-07-24T06:12:55;4.30;;;0.77;;
22549;SDS011;11441;57.164;-2.120;2023-07-24T06:15:22;3.35;;;0.68;;
22549;SDS011;11441;57.164;-2.120;2023-07-24T06:17:49;2.97;;;1.02;;
22549;SDS011;11441;57.164;-2.120;2023-07-24T06:20:19;5.68;;;0.63;;
22549;SDS011;11441;57.164;-2.120;2023-07-24T06:22:46;2.63;;;0.50;;
22549;SDS011;11441;57.164;-2.120;2023-07-24T06:25:13;1.80;;;0.30;;
22549;SDS011;11441;57.164;-2.120;2023-07-24T06:27:40;0.73;;;0.43;;
22549;SDS011;11441;57.164;-2.120;2023-07-24T06:30:07;0.85;;;0.30;;
22549;SDS011;11441;57.164;-2.120;2023-07-24T06:32:41;0.75;;;0.40;;
22549;SDS011;11441;57.164;-2.120;2023-07-24T06:35:09;2.75;;;0.50;;
22549;SDS011;11441;57.164;-2.120;2023-07-24T06:37:36;2.60;;;0.68;;
22549;SDS011;11441;57.164;-2.120;2023-07-24T06:40:02;1.52;;;0.32;;
22549;SDS011;11441;57.164;-2.120;2023-07-24T06:42:30;0.98;;;0.30;;
22549;SDS011;11441;57.164;-2.120;2023-07-24T06:44:56;2.03;;;0.40;;
22549;SDS011;11441;57.164;-2.120;2023-07-24T06:47:23;1.92;;;0.40;;
22549;SDS011;11441;57.164;-2.120;2023-07-24T06:49:51;0.35;;;0.35;;
22549;SDS011;11441;57.164;-2.120;2023-07-24T06:52:17;1.00;;;0.40;;
22549;SDS011;11441;57.164;-2.120;2023-07-24T06:54:44;0.85;;;0.43;;
22549;SDS011;11441;57.164;-2.120;2023-07-24T06:57:11;2.15;;;0.40;;
22549;SDS011;11441;57.164;-2.120;2023-07-24T06:59:38;3.17;;;0.80;;
22549;SDS011;11441;57.164;-2.120;2023-07-24T07:02:05;2.88;;;0.70;;
22549;SDS011;11441;57.164;-2.120;2023-07-24T07:04:32;0.98;;;0.60;;
22549;SDS011;11441;57.164;-2.120;2023-07-24T07:06:58;1.58;;;0.32;;
22549;SDS011;11441;57.164;-2.120;2023-07-24T07:09:44;2.15;;;0.47;;
22549;SDS011;11441;57.164;-2.120;2023-07-24T07:12:11;1.52;;;0.40;;
22549;SDS011;11441;57.164;-2.120;2023-07-24T07:14:37;0.95;;;0.40;;
22549;SDS011;11441;57.164;-2.120;2023-07-24T07:17:04;1.50;;;0.32;;
22549;SDS011;11441;57.164;-2.120;2023-07-24T07:19:50;1.20;;;0.40;;
22549;SDS011;11441;57.164;-2.120;2023-07-24T07:22:16;0.85;;;0.30;;
22549;SDS011;11441;57.164;-2.120;2023-07-24T07:24:43;0.47;;;0.28;;
22549;SDS011;11441;57.164;-2.120;2023-07-24T07:27:13;1.92;;;0.45;;
22549;SDS011;11441;57.164;-2.120;2023-07-24T07:29:39;1.48;;;0.22;;
22549;SDS011;11441;57.164;-2.120;2023-07-24T07:32:06;3.08;;;0.10;;
22549;SDS011;11441;57.164;-2.120;2023-07-24T07:34:33;0.50;;;0.20;;
22549;SDS011;11441;57.164;-2.120;2023-07-24T07:37:02;1.75;;;0.22;;
22549;SDS011;11441;57.164;-2.120;2023-07-24T07:39:29;0.20;;;0.10;;
22549;SDS011;11441;57.164;-2.120;2023-07-24T07:41:56;0.70;;;0.22;;
22549;SDS011;11441;57.164;-2.120;2023-07-24T07:44:42;0.65;;;0.30;;
22549;SDS011;11441;57.164;-2.120;2023-07-24T07:47:09;0.30;;;0.30;;
22549;SDS011;11441;57.164;-2.120;2023-07-24T07:49:36;1.05;;;0.30;;
22549;SDS011;11441;57.164;-2.120;2023-07-24T07:52:21;0.55;;;0.32;;
22549;SDS011;11441;57.164;-2.120;2023-07-24T07:54:49;1.95;;;0.50;;
22549;SDS011;11441;57.164;-2.120;2023-07-24T07:57:15;0.20;;;0.20;;
22549;SDS011;11441;57.164;-2.120;2023-07-24T07:59:42;1.75;;;0.45;;
22549;SDS011;11441;57.164;-2.120;2023-07-24T08:02:09;0.52;;;0.20;;
22549;SDS011;11441;57.164;-2.120;2023-07-24T08:04:36;4.57;;;0.30;;
22549;SDS011;11441;57.164;-2.120;2023-07-24T08:07:03;0.35;;;0.35;;
22549;SDS011;11441;57.164;-2.120;2023-07-24T08:09:30;0.57;;;0.20;;
22549;SDS011;11441;57.164;-2.120;2023-07-24T08:11:59;0.40;;;0.10;;
22549;SDS011;11441;57.164;-2.120;2023-07-24T08:14:26;1.40;;;0.30;;
22549;SDS011;11441;57.164;-2.120;2023-07-24T08:16:52;0.73;;;0.20;;
22549;SDS011;11441;57.164;-2.120;2023-07-24T08:19:20;0.22;;;0.10;;
22549;SDS011;11441;57.164;-2.120;2023-07-24T08:21:47;0.70;;;0.15;;
22549;SDS011;11441;57.164;-2.120;2023-07-24T08:24:35;0.45;;;0.13;;
22549;SDS011;11441;57.164;-2.120;2023-07-24T08:29:50;1.55;;;0.25;;
22549;SDS011;11441;57.164;-2.120;2023-07-24T08:32:18;1.35;;;0.20;;
22549;SDS011;11441;57.164;-2.120;2023-07-24T08:34:45;0.20;;;0.20;;
22549;SDS011;11441;57.164;-2.120;2023-07-24T08:37:12;0.20;;;0.13;;
22549;SDS011;11441;57.164;-2.120;2023-07-24T08:39:39;0.20;;;0.10;;
22549;SDS011;11441;57.164;-2.120;2023-07-24T08:42:11;0.20;;;0.10;;
22549;SDS011;11441;57.164;-2.120;2023-07-24T08:44:38;0.85;;;0.20;;
22549;SDS011;11441;57.164;-2.120;2023-07-24T08:47:06;1.88;;;0.20;;
22549;SDS011;11441;57.164;-2.120;2023-07-24T08:49:36;0.75;;;0.20;;
22549;SDS011;11441;57.164;-2.120;2023-07-24T08:52:06;0.20;;;0.17;;
22549;SDS011;11441;57.164;-2.120;2023-07-24T08:54:56;0.22;;;0.20;;
22549;SDS011;11441;57.164;-2.120;2023-07-24T08:57:27;0.20;;;0.20;;
22549;SDS011;11441;57.164;-2.120;2023-07-24T08:59:54;0.10;;;0.10;;
22549;SDS011;11441;57.164;-2.120;2023-07-24T09:02:20;3.53;;;0.52;;
22549;SDS011;11441;57.164;-2.120;2023-07-24T09:05:06;0.95;;;0.10;;
22549;SDS011;11441;57.164;-2.120;2023-07-24T09:07:34;1.48;;;0.30;;
22549;SDS011;11441;57.164;-2.120;2023-07-24T09:10:01;0.20;;;0.20;;
22549;SDS011;11441;57.164;-2.120;2023-07-24T09:12:27;1.02;;;0.43;;
22549;SDS011;11441;57.164;-2.120;2023-07-24T09:15:01;0.57;;;0.20;;
22549;SDS011;11441;57.164;-2.120;2023-07-24T09:17:33;1.90;;;0.22;;
22549;SDS011;11441;57.164;-2.120;2023-07-24T09:20:01;3.70;;;0.47;;
22549;SDS011;11441;57.164;-2.120;2023-07-24T09:22:29;1.70;;;0.50;;
22549;SDS011;11441;57.164;-2.120;2023-07-24T09:24:56;0.10;;;0.10;;
22549;SDS011;11441;57.164;-2.120;2023-07-24T09:27:25;1.65;;;0.30;;
22549;SDS011;11441;57.164;-2.120;2023-07-24T09:29:54;0.85;;;0.20;;
22549;SDS011;11441;57.164;-2.120;2023-07-24T09:32:22;0.65;;;0.30;;
22549;SDS011;11441;57.164;-2.120;2023-07-24T09:34:50;2.67;;;0.13;;
22549;SDS011;11441;57.164;-2.120;2023-07-24T09:37:24;0.40;;;0.20;;
22549;SDS011;11441;57.164;-2.120;2023-07-24T09:39:52;0.43;;;0.20;;
22549;SDS011;11441;57.164;-2.120;2023-07-24T09:42:29;0.55;;;0.25;;
22549;SDS011;11441;57.164;-2.120;2023-07-24T09:44:57;0.40;;;0.10;;
22549;SDS011;11441;57.164;-2.120;2023-07-24T09:47:25;1.17;;;0.20;;
22549;SDS011;11441;57.164;-2.120;2023-07-24T09:50:12;0.30;;;0.30;;
22549;SDS011;11441;57.164;-2.120;2023-07-24T09:52:40;0.70;;;0.20;;
22549;SDS011;11441;57.164;-2.120;2023-07-24T09:55:29;0.85;;;0.20;;
22549;SDS011;11441;57.164;-2.120;2023-07-24T09:58:00;0.88;;;0.30;;
22549;SDS011;11441;57.164;-2.120;2023-07-24T10:00:28;0.82;;;0.40;;
22549;SDS011;11441;57.164;-2.120;2023-07-24T10:02:57;1.27;;;0.10;;
22549;SDS011;11441;57.164;-2.120;2023-07-24T10:05:25;2.08;;;0.43;;
22549;SDS011;11441;57.164;-2.120;2023-07-24T10:07:52;0.20;;;0.20;;
22549;SDS011;11441;57.164;-2.120;2023-07-24T10:10:19;1.40;;;0.32;;
22549;SDS011;11441;57.164;-2.120;2023-07-24T10:12:47;0.70;;;0.25;;
22549;SDS011;11441;57.164;-2.120;2023-07-24T10:15:15;1.48;;;0.43;;
22549;SDS011;11441;57.164;-2.120;2023-07-24T10:17:43;0.95;;;0.20;;
22549;SDS011;11441;57.164;-2.120;2023-07-24T10:20:11;2.05;;;0.20;;
22549;SDS011;11441;57.164;-2.120;2023-07-24T10:25:30;9.57;;;1.20;;
22549;SDS011;11441;57.164;-2.120;2023-07-24T10:28:05;0.85;;;0.15;;
22549;SDS011;11441;57.164;-2.120;2023-07-24T10:30:37;0.75;;;0.35;;
22549;SDS011;11441;57.164;-2.120;2023-07-24T10:33:05;0.68;;;0.25;;
22549;SDS011;11441;57.164;-2.120;2023-07-24T10:35:38;0.52;;;0.35;;
22549;SDS011;11441;57.164;-2.120;2023-07-24T10:38:06;1.35;;;0.30;;
22549;SDS011;11441;57.164;-2.120;2023-07-24T10:40:33;0.68;;;0.40;;
22549;SDS011;11441;57.164;-2.120;2023-07-24T10:43:10;0.93;;;0.43;;
22549;SDS011;11441;57.164;-2.120;2023-07-24T10:45:56;1.25;;;0.52;;
22549;SDS011;11441;57.164;-2.120;2023-07-24T10:48:24;0.25;;;0.22;;
22549;SDS011;11441;57.164;-2.120;2023-07-24T10:50:52;0.47;;;0.20;;
22549;SDS011;11441;57.164;-2.120;2023-07-24T10:53:21;0.30;;;0.30;;
22549;SDS011;11441;57.164;-2.120;2023-07-24T10:55:50;2.05;;;0.30;;
22549;SDS011;11441;57.164;-2.120;2023-07-24T10:58:18;3.20;;;0.40;;
22549;SDS011;11441;57.164;-2.120;2023-07-24T11:00:45;0.88;;;0.88;;
22549;SDS011;11441;57.164;-2.120;2023-07-24T11:03:15;1.45;;;0.32;;
22549;SDS011;11441;57.164;-2.120;2023-07-24T11:05:44;1.55;;;0.20;;
22549;SDS011;11441;57.164;-2.120;2023-07-24T11:08:12;0.65;;;0.20;;
22549;SDS011;11441;57.164;-2.120;2023-07-24T11:10:48;0.10;;;0.10;;
22549;SDS011;11441;57.164;-2.120;2023-07-24T11:13:20;0.68;;;0.10;;
22549;SDS011;11441;57.164;-2.120;2023-07-24T11:15:48;5.95;;;2.10;;
22549;SDS011;11441;57.164;-2.120;2023-07-24T11:18:16;1.20;;;1.00;;
22549;SDS011;11441;57.164;-2.120;2023-07-24T11:20:44;1.45;;;0.50;;
22549;SDS011;11441;57.164;-2.120;2023-07-24T11:23:13;2.17;;;0.30;;
22549;SDS011;11441;57.164;-2.120;2023-07-24T11:25:40;0.15;;;0.10;;
22549;SDS011;11441;57.164;-2.120;2023-07-24T11:28:08;0.98;;;0.25;;
22549;SDS011;11441;57.164;-2.120;2023-07-24T11:30:36;1.77;;;0.30;;
22549;SDS011;11441;57.164;-2.120;2023-07-24T11:33:21;1.15;;;0.52;;
22549;SDS011;11441;57.164;-2.120;2023-07-24T11:35:49;0.80;;;0.32;;
22549;SDS011;11441;57.164;-2.120;2023-07-24T11:38:16;0.63;;;0.40;;
22549;SDS011;11441;57.164;-2.120;2023-07-24T11:40:44;0.52;;;0.10;;
22549;SDS011;11441;57.164;-2.120;2023-07-24T11:43:29;0.30;;;0.20;;
22549;SDS011;11441;57.164;-2.120;2023-07-24T11:45:57;1.08;;;0.15;;
22549;SDS011;11441;57.164;-2.120;2023-07-24T11:48:24;0.15;;;0.15;;
22549;SDS011;11441;57.164;-2.120;2023-07-24T11:50:52;1.75;;;0.30;;
22549;SDS011;11441;57.164;-2.120;2023-07-24T11:53:21;0.28;;;0.10;;
22549;SDS011;11441;57.164;-2.120;2023-07-24T11:55:50;0.13;;;0.10;;
22549;SDS011;11441;57.164;-2.120;2023-07-24T11:58:19;0.90;;;0.30;;
22549;SDS011;11441;57.164;-2.120;2023-07-24T12:00:47;0.10;;;0.10;;
22549;SDS011;11441;57.164;-2.120;2023-07-24T12:03:19;0.20;;;0.15;;
22549;SDS011;11441;57.164;-2.120;2023-07-24T12:05:51;0.40;;;0.10;;
22549;SDS011;11441;57.164;-2.120;2023-07-24T12:08:29;0.88;;;0.20;;
22549;SDS011;11441;57.164;-2.120;2023-07-24T12:10:58;0.10;;;0.10;;
22549;SDS011;11441;57.164;-2.120;2023-07-24T12:13:25;0.20;;;0.10;;
22549;SDS011;11441;57.164;-2.120;2023-07-24T12:15:51;0.35;;;0.22;;
22549;SDS011;11441;57.164;-2.120;2023-07-24T12:18:18;0.70;;;0.30;;
22549;SDS011;11441;57.164;-2.120;2023-07-24T12:20:45;0.38;;;0.10;;
22549;SDS011;11441;57.164;-2.120;2023-07-24T12:23:13;0.10;;;0.10;;
22549;SDS011;11441;57.164;-2.120;2023-07-24T12:25:40;0.73;;;0.20;;
22549;SDS011;11441;57.164;-2.120;2023-07-24T12:28:07;0.10;;;0.10;;
22549;SDS011;11441;57.164;-2.120;2023-07-24T12:30:34;0.10;;;0.10;;
22549;SDS011;11441;57.164;-2.120;2023-07-24T12:33:01;0.20;;;0.20;;
22549;SDS011;11441;57.164;-2.120;2023-07-24T12:35:28;0.10;;;0.10;;
22549;SDS011;11441;57.164;-2.120;2023-07-24T12:37:55;0.77;;;0.20;;
22549;SDS011;11441;57.164;-2.120;2023-07-24T12:40:22;1.17;;;0.30;;
22549;SDS011;11441;57.164;-2.120;2023-07-24T12:45:34;0.40;;;0.40;;
22549;SDS011;11441;57.164;-2.120;2023-07-24T12:48:01;1.20;;;0.40;;
22549;SDS011;11441;57.164;-2.120;2023-07-24T12:50:27;0.32;;;0.20;;
22549;SDS011;11441;57.164;-2.120;2023-07-24T12:52:55;0.43;;;0.20;;
22549;SDS011;11441;57.164;-2.120;2023-07-24T12:55:22;0.10;;;0.10;;
22549;SDS011;11441;57.164;-2.120;2023-07-24T12:57:49;0.93;;;0.20;;
22549;SDS011;11441;57.164;-2.120;2023-07-24T13:00:16;0.35;;;0.17;;
22549;SDS011;11441;57.164;-2.120;2023-07-24T13:02:43;1.83;;;0.20;;
22549;SDS011;11441;57.164;-2.120;2023-07-24T13:05:10;0.35;;;0.17;;
22549;SDS011;11441;57.164;-2.120;2023-07-24T13:07:37;0.13;;;0.13;;
22549;SDS011;11441;57.164;-2.120;2023-07-24T13:10:04;0.20;;;0.20;;
22549;SDS011;11441;57.164;-2.120;2023-07-24T13:12:31;1.23;;;0.30;;
22549;SDS011;11441;57.164;-2.120;2023-07-24T13:14:58;0.60;;;0.20;;
22549;SDS011;11441;57.164;-2.120;2023-07-24T13:17:25;0.10;;;0.10;;
22549;SDS011;11441;57.164;-2.120;2023-07-24T13:19:53;0.20;;;0.20;;
22549;SDS011;11441;57.164;-2.120;2023-07-24T13:22:19;0.30;;;0.20;;
22549;SDS011;11441;57.164;-2.120;2023-07-24T13:24:46;2.28;;;0.25;;
22549;SDS011;11441;57.164;-2.120;2023-07-24T13:27:13;0.47;;;0.20;;
22549;SDS011;11441;57.164;-2.120;2023-07-24T13:29:40;0.10;;;0.10;;
22549;SDS011;11441;57.164;-2.120;2023-07-24T13:32:07;0.50;;;0.30;;
22549;SDS011;11441;57.164;-2.120;2023-07-24T13:34:34;0.80;;;0.20;;
22549;SDS011;11441;57.164;-2.120;2023-07-24T13:37:01;0.63;;;0.13;;
22549;SDS011;11441;57.164;-2.120;2023-07-24T13:39:28;0.35;;;0.20;;
22549;SDS011;11441;57.164;-2.120;2023-07-24T13:41:56;0.20;;;0.20;;
22549;SDS011;11441;57.164;-2.120;2023-07-24T13:44:22;0.98;;;0.45;;
22549;SDS011;11441;57.164;-2.120;2023-07-24T13:46:49;1.20;;;0.35;;
22549;SDS011;11441;57.164;-2.120;2023-07-24T13:49:16;0.45;;;0.13;;
22549;SDS011;11441;57.164;-2.120;2023-07-24T13:51:43;0.82;;;0.20;;
22549;SDS011;11441;57.164;-2.120;2023-07-24T13:54:10;1.50;;;0.20;;
22549;SDS011;11441;57.164;-2.120;2023-07-24T13:56:37;1.50;;;0.30;;
22549;SDS011;11441;57.164;-2.120;2023-07-24T13:59:05;0.65;;;0.20;;
22549;SDS011;11441;57.164;-2.120;2023-07-24T14:01:31;0.52;;;0.20;;
22549;SDS011;11441;57.164;-2.120;2023-07-24T14:03:59;2.65;;;0.30;;
22549;SDS011;11441;57.164;-2.120;2023-07-24T14:06:27;0.73;;;0.10;;
22549;SDS011;11441;57.164;-2.120;2023-07-24T14:08:54;1.08;;;0.13;;
22549;SDS011;11441;57.164;-2.120;2023-07-24T14:11:40;1.90;;;0.20;;
22549;SDS011;11441;57.164;-2.120;2023-07-24T14:14:07;0.68;;;0.10;;
22549;SDS011;11441;57.164;-2.120;2023-07-24T14:19:19;0.88;;;0.30;;
22549;SDS011;11441;57.164;-2.120;2023-07-24T14:21:46;0.40;;;0.20;;
22549;SDS011;11441;57.164;-2.120;2023-07-24T14:24:13;0.45;;;0.10;;
22549;SDS011;11441;57.164;-2.120;2023-07-24T14:26:40;0.28;;;0.20;;
22549;SDS011;11441;57.164;-2.120;2023-07-24T14:29:07;0.30;;;0.30;;
22549;SDS011;11441;57.164;-2.120;2023-07-24T14:31:34;0.10;;;0.10;;
22549;SDS011;11441;57.164;-2.120;2023-07-24T14:34:00;1.48;;;0.30;;
22549;SDS011;11441;57.164;-2.120;2023-07-24T14:36:27;0.70;;;0.17;;
22549;SDS011;11441;57.164;-2.120;2023-07-24T14:39:00;0.32;;;0.22;;
22549;SDS011;11441;57.164;-2.120;2023-07-24T14:41:27;1.33;;;0.28;;
22549;SDS011;11441;57.164;-2.120;2023-07-24T14:43:54;1.45;;;0.47;;
22549;SDS011;11441;57.164;-2.120;2023-07-24T14:46:21;0.30;;;0.30;;
22549;SDS011;11441;57.164;-2.120;2023-07-24T14:48:48;0.10;;;0.10;;
22549;SDS011;11441;57.164;-2.120;2023-07-24T14:51:15;1.17;;;0.22;;
22549;SDS011;11441;57.164;-2.120;2023-07-24T14:53:42;0.52;;;0.13;;
22549;SDS011;11441;57.164;-2.120;2023-07-24T14:56:09;0.90;;;0.10;;
22549;SDS011;11441;57.164;-2.120;2023-07-24T14:58:36;0.10;;;0.10;;
22549;SDS011;11441;57.164;-2.120;2023-07-24T15:01:03;1.45;;;0.30;;
22549;SDS011;11441;57.164;-2.120;2023-07-24T15:03:30;1.55;;;0.20;;